Port Austin, Michigan
Current Conditions -  °F | °C
As of 4:38 AM on Saturday 25 Oct 2014 (Local Time) from KBAX Reporting Station
Haze Haze  
Wind Chill: 41°   Ceiling: Unl
Heat Index: 44°   Visibility: 2.5mi
Dew Point: 44°   Wind: 6mph
Humidity: 100%   Direction: 220°SW
Pressure: 29.84"   Gusts: NA
Location:  44.05°N, 82.99°W
Report Text: KBAX 250838Z AUTO 22005KT 2 1/2SM BR CLR 07/07 A2984 RMK AO2 T00670067
Loading
Personal Weather Stations






























Interactive Weather Map
Tropical Storm Tracking
New forecast layout! Learn more

10-Day Weather Forecast

Advertisements
Track Severe Weather on mobile